Time;durP1;ratioP1;P1;durP2;ratioP2;P2;SDS_P1;SDS_P2;PMS_P1;PMS_P2;Temp;Humidity;BMP_temperature;BMP_pressure;BME280_temperature;BME280_humidity;BME280_pressure;Samples;Min_cycle;Max_cycle;Signal;HPM_P1;HPM_P2
2022/04/11 00:01:06;;;;;;;;;;;1.90;99.90;;;;;;5063656;28;19943;-68
2022/04/11 00:03:38;;;;;;;;;;;1.80;99.90;;;;;;5062337;28;19927;-68
2022/04/11 00:06:05;;;;;;;;;;;1.80;99.90;;;;;;5063499;28;19943;-68
2022/04/11 00:08:40;;;;;;;;;;;1.80;99.90;;;;;;5063164;28;19928;-68
2022/04/11 00:11:07;;;;;;;;;;;1.80;99.90;;;;;;5063673;28;19942;-68
2022/04/11 00:13:34;;;;;;;;;;;1.80;99.90;;;;;;5063579;28;19959;-68
2022/04/11 00:16:00;;;;;;;;;;;1.80;99.90;;;;;;5063348;28;19925;-68
2022/04/11 00:18:27;;;;;;;;;;;1.80;99.90;;;;;;5056922;28;19921;-68
2022/04/11 00:20:53;;;;;;;;;;;1.80;99.90;;;;;;5056411;28;19920;-68
2022/04/11 00:23:20;;;;;;;;;;;1.80;99.90;;;;;;5063438;28;19978;-69
2022/04/11 00:25:49;;;;;;;;;;;1.80;99.90;;;;;;5062337;28;19928;-69
2022/04/11 00:28:16;;;;;;;;;;;1.70;99.90;;;;;;5063551;28;19944;-68
2022/04/11 00:30:42;;;;;;;;;;;1.70;99.90;;;;;;5063331;28;19921;-70
2022/04/11 00:33:09;;;;;;;;;;;1.70;99.90;;;;;;5062641;28;19925;-68
2022/04/11 00:35:35;;;;;;;;;;;1.70;99.90;;;;;;5062323;28;19935;-68
2022/04/11 00:38:02;;;;;;;;;;;1.60;99.90;;;;;;5062910;28;19921;-68
2022/04/11 00:40:28;;;;;;;;;;;1.60;99.90;;;;;;5061883;28;19921;-68
2022/04/11 00:42:56;;;;;;;;;;;1.60;99.90;;;;;;5066806;28;19921;-68
2022/04/11 00:45:23;;;;;;;;;;;1.60;99.90;;;;;;5066872;28;19942;-68
2022/04/11 00:47:49;;;;;;;;;;;1.50;99.90;;;;;;5067246;28;19921;-69
2022/04/11 00:50:16;;;;;;;;;;;1.50;99.90;;;;;;5066801;28;19927;-68
2022/04/11 00:52:45;;;;;;;;;;;1.50;99.90;;;;;;5067108;28;19927;-68
2022/04/11 00:55:18;;;;;;;;;;;1.50;99.90;;;;;;5065852;28;20204;-69
2022/04/11 00:57:46;;;;;;;;;;;1.50;99.90;;;;;;5067058;28;19928;-68
2022/04/11 01:00:14;;;;;;;;;;;1.50;99.90;;;;;;5066925;28;19928;-68
2022/04/11 01:02:41;;;;;;;;;;;1.50;99.90;;;;;;5066632;28;20205;-68
2022/04/11 01:05:12;;;;;;;;;;;1.40;99.90;;;;;;5065592;28;19924;-68
2022/04/11 01:07:38;;;;;;;;;;;1.40;99.90;;;;;;5066488;28;19928;-68
2022/04/11 01:10:06;;;;;;;;;;;1.40;99.90;;;;;;5066477;28;19927;-68
2022/04/11 01:12:33;;;;;;;;;;;1.40;99.90;;;;;;5066686;28;19929;-69
2022/04/11 01:14:59;;;;;;;;;;;1.40;99.90;;;;;;5066218;28;20027;-68
2022/04/11 01:17:34;;;;;;;;;;;1.40;99.90;;;;;;5066396;28;19974;-68
2022/04/11 01:20:06;;;;;;;;;;;1.30;99.90;;;;;;5052684;28;19928;-68
2022/04/11 01:22:34;;;;;;;;;;;1.30;99.90;;;;;;5066070;28;19925;-68
2022/04/11 01:25:01;;;;;;;;;;;1.30;99.90;;;;;;5066426;28;19928;-68
2022/04/11 01:27:29;;;;;;;;;;;1.20;99.90;;;;;;5066052;28;19927;-69
2022/04/11 01:29:55;;;;;;;;;;;1.10;99.90;;;;;;5066352;28;19921;-68
2022/04/11 01:32:22;;;;;;;;;;;1.10;99.90;;;;;;5066264;28;19927;-68
2022/04/11 01:34:48;;;;;;;;;;;1.10;99.90;;;;;;5066092;28;20230;-68
2022/04/11 01:37:15;;;;;;;;;;;1.10;99.90;;;;;;5065656;28;19921;-68
2022/04/11 01:39:43;;;;;;;;;;;1.00;99.90;;;;;;5074481;22;19925;-69
2022/04/11 01:42:09;;;;;;;;;;;1.00;99.90;;;;;;5064923;28;20118;-69
2022/04/11 01:44:36;;;;;;;;;;;1.00;99.90;;;;;;5083626;28;20115;-68
2022/04/11 01:47:03;;;;;;;;;;;1.00;99.90;;;;;;5085334;28;19920;-67
2022/04/11 01:49:29;;;;;;;;;;;1.00;99.90;;;;;;5085485;28;19920;-68
2022/04/11 01:51:56;;;;;;;;;;;1.00;99.90;;;;;;5069970;28;19931;-68
2022/04/11 01:54:23;;;;;;;;;;;1.00;99.90;;;;;;5064636;28;19956;-69
2022/04/11 01:56:51;;;;;;;;;;;0.90;99.90;;;;;;5064064;28;19959;-66
2022/04/11 01:59:18;;;;;;;;;;;0.90;99.90;;;;;;5064980;28;19921;-68
2022/04/11 02:01:44;;;;;;;;;;;0.90;99.90;;;;;;5064997;28;19921;-68
2022/04/11 02:04:11;;;;;;;;;;;0.90;99.90;;;;;;5064961;28;19927;-68
2022/04/11 02:06:37;;;;;;;;;;;0.90;99.90;;;;;;5064788;28;19921;-68
2022/04/11 02:09:04;;;;;;;;;;;0.90;99.90;;;;;;5064893;28;19987;-67
2022/04/11 02:11:31;;;;;;;;;;;0.80;99.90;;;;;;5064267;28;19928;-69
2022/04/11 02:13:59;;;;;;;;;;;0.80;99.90;;;;;;5065020;28;19928;-69
2022/04/11 02:16:25;;;;;;;;;;;0.80;99.90;;;;;;5063633;28;20131;-69
2022/04/11 02:18:52;;;;;;;;;;;0.80;99.90;;;;;;5065046;28;20093;-69
2022/04/11 02:21:18;;;;;;;;;;;0.80;99.90;;;;;;5064455;28;19929;-68
2022/04/11 02:23:46;;;;;;;;;;;0.80;99.90;;;;;;5076697;28;20218;-69
2022/04/11 02:26:12;;;;;;;;;;;0.80;99.90;;;;;;5083245;28;19927;-69
2022/04/11 02:28:39;;;;;;;;;;;0.70;99.90;;;;;;5065146;28;19928;-69
2022/04/11 02:31:07;;;;;;;;;;;0.70;99.90;;;;;;5064342;28;19924;-68
2022/04/11 02:33:34;;;;;;;;;;;0.70;99.90;;;;;;5064723;28;20120;-68
2022/04/11 02:36:00;;;;;;;;;;;0.70;99.90;;;;;;5064181;28;19959;-68
2022/04/11 02:38:27;;;;;;;;;;;0.70;99.90;;;;;;5064407;28;19921;-68
2022/04/11 02:40:53;;;;;;;;;;;0.70;99.90;;;;;;5064081;28;19933;-68
2022/04/11 02:43:20;;;;;;;;;;;0.80;99.90;;;;;;5072618;28;19921;-68
2022/04/11 02:45:47;;;;;;;;;;;0.80;99.90;;;;;;5083919;28;19927;-69
2022/04/11 02:48:14;;;;;;;;;;;0.80;99.90;;;;;;5084313;28;20204;-68
2022/04/11 02:50:41;;;;;;;;;;;0.70;99.90;;;;;;5080851;28;20105;-68
2022/04/11 02:53:08;;;;;;;;;;;0.80;99.90;;;;;;5064060;28;19928;-68
2022/04/11 02:55:34;;;;;;;;;;;0.80;99.90;;;;;;5063303;28;19921;-68
2022/04/11 02:58:01;;;;;;;;;;;0.80;99.90;;;;;;5063976;28;20212;-69
2022/04/11 03:00:27;;;;;;;;;;;0.70;99.90;;;;;;5063874;28;20216;-68
2022/04/11 03:02:54;;;;;;;;;;;0.70;99.90;;;;;;5063892;28;20212;-68
2022/04/11 03:05:22;;;;;;;;;;;0.70;99.90;;;;;;5062903;28;19943;-68
2022/04/11 03:07:48;;;;;;;;;;;0.80;99.90;;;;;;5064125;28;19928;-69
2022/04/11 03:10:15;;;;;;;;;;;0.70;99.90;;;;;;5063820;28;19921;-68
2022/04/11 03:12:41;;;;;;;;;;;0.70;99.90;;;;;;5063544;28;19921;-69
2022/04/11 03:15:09;;;;;;;;;;;0.70;99.90;;;;;;5063618;28;19929;-69
2022/04/11 03:17:36;;;;;;;;;;;0.70;99.90;;;;;;5064139;28;19921;-67
2022/04/11 03:20:03;;;;;;;;;;;0.70;99.90;;;;;;5050336;28;20461;-69
2022/04/11 03:22:31;;;;;;;;;;;0.70;99.90;;;;;;5065227;28;19921;-69
2022/04/11 03:24:57;;;;;;;;;;;0.70;99.90;;;;;;5083245;28;19991;-69
2022/04/11 03:27:24;;;;;;;;;;;0.70;99.90;;;;;;5074028;28;20221;-68
2022/04/11 03:29:51;;;;;;;;;;;0.70;99.90;;;;;;5062983;28;19927;-69
2022/04/11 03:32:17;;;;;;;;;;;0.70;99.90;;;;;;5063456;28;20154;-69
2022/04/11 03:34:44;;;;;;;;;;;0.70;99.90;;;;;;5063640;28;19929;-68
2022/04/11 03:37:10;;;;;;;;;;;0.70;99.90;;;;;;5063321;28;19921;-68
2022/04/11 03:39:38;;;;;;;;;;;0.70;99.90;;;;;;5063006;28;19992;-68
2022/04/11 03:42:05;;;;;;;;;;;0.70;99.90;;;;;;5063234;28;19920;-69
2022/04/11 03:44:32;;;;;;;;;;;0.70;99.90;;;;;;5063545;28;19921;-69
2022/04/11 03:46:58;;;;;;;;;;;0.70;99.90;;;;;;5062934;28;19924;-68
2022/04/11 03:49:25;;;;;;;;;;;0.70;99.90;;;;;;5063319;28;19929;-68
2022/04/11 03:51:52;;;;;;;;;;;0.70;99.90;;;;;;5062705;28;19927;-69
2022/04/11 03:54:18;;;;;;;;;;;0.70;99.90;;;;;;5063137;28;19921;-69
2022/04/11 03:56:46;;;;;;;;;;;0.70;99.90;;;;;;5062374;28;19927;-68
2022/04/11 03:59:13;;;;;;;;;;;0.60;99.90;;;;;;5063189;28;19924;-69
2022/04/11 04:01:39;;;;;;;;;;;0.60;99.90;;;;;;5062568;28;19921;-69
2022/04/11 04:04:06;;;;;;;;;;;0.70;99.90;;;;;;5063007;28;19920;-69
2022/04/11 04:06:33;;;;;;;;;;;0.70;99.90;;;;;;5062811;28;19929;-68
2022/04/11 04:08:59;;;;;;;;;;;0.70;99.90;;;;;;5063054;28;19921;-68
2022/04/11 04:11:26;;;;;;;;;;;0.60;99.90;;;;;;5062622;28;20163;-68
2022/04/11 04:13:54;;;;;;;;;;;0.60;99.90;;;;;;5062838;28;19920;-69
2022/04/11 04:16:20;;;;;;;;;;;0.70;99.90;;;;;;5063997;28;19928;-68
2022/04/11 04:18:47;;;;;;;;;;;0.70;99.90;;;;;;5067025;28;19921;-69
2022/04/11 04:21:13;;;;;;;;;;;0.60;99.90;;;;;;5067134;28;20216;-68
2022/04/11 04:23:41;;;;;;;;;;;0.60;99.90;;;;;;5078246;28;20089;-69
2022/04/11 04:26:08;;;;;;;;;;;0.70;99.90;;;;;;5086165;28;19991;-68
2022/04/11 04:28:35;;;;;;;;;;;0.70;99.90;;;;;;5066598;28;20215;-68
2022/04/11 04:31:03;;;;;;;;;;;0.70;99.90;;;;;;5066963;28;20203;-68
2022/04/11 04:33:30;;;;;;;;;;;0.70;99.90;;;;;;5066855;28;19944;-68
2022/04/11 04:35:57;;;;;;;;;;;0.70;99.90;;;;;;5066268;28;19924;-69
2022/04/11 04:38:23;;;;;;;;;;;0.70;99.90;;;;;;5064880;28;19920;-68
2022/04/11 04:40:50;;;;;;;;;;;0.70;99.90;;;;;;5066278;28;20112;-68
2022/04/11 04:43:16;;;;;;;;;;;0.70;99.90;;;;;;5070064;28;19920;-68
2022/04/11 04:45:43;;;;;;;;;;;0.70;99.90;;;;;;5065972;28;20259;-68
2022/04/11 04:48:11;;;;;;;;;;;0.60;99.90;;;;;;5066231;28;20159;-68
2022/04/11 04:50:37;;;;;;;;;;;0.60;99.90;;;;;;5066168;28;19920;-68
2022/04/11 04:53:04;;;;;;;;;;;0.70;99.90;;;;;;5065840;28;19928;-68
2022/04/11 04:55:31;;;;;;;;;;;0.70;99.90;;;;;;5064444;28;19940;-68
2022/04/11 04:57:57;;;;;;;;;;;0.70;99.90;;;;;;5066192;28;19931;-68
2022/04/11 05:00:24;;;;;;;;;;;0.70;99.90;;;;;;5066422;28;19929;-68
2022/04/11 05:02:50;;;;;;;;;;;0.70;99.90;;;;;;5066103;28;19983;-67
2022/04/11 05:05:18;;;;;;;;;;;0.70;99.90;;;;;;5065668;28;19921;-68
2022/04/11 05:07:45;;;;;;;;;;;0.70;99.90;;;;;;5066016;28;19921;-67
2022/04/11 05:10:11;;;;;;;;;;;0.70;99.90;;;;;;5065861;28;19925;-67
2022/04/11 05:12:38;;;;;;;;;;;0.70;99.90;;;;;;5066145;28;19927;-68
2022/04/11 05:15:05;;;;;;;;;;;0.80;99.90;;;;;;5066256;28;19921;-68
2022/04/11 05:17:32;;;;;;;;;;;0.80;99.90;;;;;;5065474;28;19921;-66
2022/04/11 05:19:59;;;;;;;;;;;0.80;99.90;;;;;;5065755;28;19928;-67
2022/04/11 05:22:26;;;;;;;;;;;0.80;99.90;;;;;;5066668;28;19921;-69
2022/04/11 05:24:53;;;;;;;;;;;0.80;99.90;;;;;;5086103;28;19921;-69
2022/04/11 05:27:20;;;;;;;;;;;0.90;99.90;;;;;;5076088;28;19920;-69
2022/04/11 05:29:46;;;;;;;;;;;0.90;99.90;;;;;;5065923;28;19920;-68
2022/04/11 05:32:13;;;;;;;;;;;0.90;99.90;;;;;;5064704;28;19921;-68
2022/04/11 05:35:06;;;;;;;;;;;1.00;99.90;;;;;;5065968;28;19920;-69
2022/04/11 05:37:34;;;;;;;;;;;1.00;99.90;;;;;;5065544;28;20097;-68
2022/04/11 05:40:00;;;;;;;;;;;1.10;99.90;;;;;;5065813;28;19967;-68
2022/04/11 05:42:34;;;;;;;;;;;1.10;99.90;;;;;;5066422;28;19927;-68
2022/04/11 05:45:01;;;;;;;;;;;1.10;99.90;;;;;;5085681;28;20222;-69
2022/04/11 05:47:28;;;;;;;;;;;1.10;99.90;;;;;;5085701;28;19927;-69
2022/04/11 05:49:54;;;;;;;;;;;1.10;99.90;;;;;;5085741;28;19920;-69
2022/04/11 05:52:21;;;;;;;;;;;1.20;99.90;;;;;;5085912;28;20123;-69
2022/04/11 05:54:49;;;;;;;;;;;1.20;99.90;;;;;;5085633;28;19962;-68
2022/04/11 05:57:15;;;;;;;;;;;1.20;99.90;;;;;;5085273;28;20232;-68
2022/04/11 05:59:42;;;;;;;;;;;1.20;99.90;;;;;;5085575;28;19942;-70
2022/04/11 06:02:09;;;;;;;;;;;1.30;99.90;;;;;;5072513;28;19979;-68
2022/04/11 06:04:36;;;;;;;;;;;1.30;99.90;;;;;;5065187;28;19925;-69
2022/04/11 06:07:03;;;;;;;;;;;1.30;99.90;;;;;;5065138;28;19921;-69
2022/04/11 06:09:30;;;;;;;;;;;1.30;99.90;;;;;;5065269;28;20124;-70
2022/04/11 06:11:58;;;;;;;;;;;1.40;99.90;;;;;;5065082;28;19983;-69
2022/04/11 06:14:25;;;;;;;;;;;1.40;99.90;;;;;;5064996;28;19921;-69
2022/04/11 06:16:51;;;;;;;;;;;1.40;99.90;;;;;;5064730;28;19928;-69
2022/04/11 06:19:18;;;;;;;;;;;1.50;99.90;;;;;;5065339;28;19921;-70
2022/04/11 06:21:44;;;;;;;;;;;1.50;99.90;;;;;;5064598;28;19921;-69
2022/04/11 06:24:11;;;;;;;;;;;1.60;99.90;;;;;;5080518;28;19943;-69
2022/04/11 06:26:38;;;;;;;;;;;1.60;99.90;;;;;;5081513;28;20147;-70
2022/04/11 06:29:06;;;;;;;;;;;1.60;99.90;;;;;;5064592;28;19921;-70
2022/04/11 06:31:32;;;;;;;;;;;1.70;99.90;;;;;;5064271;28;19927;-70
2022/04/11 06:33:59;;;;;;;;;;;1.80;99.90;;;;;;5064978;28;19928;-69
2022/04/11 06:36:25;;;;;;;;;;;1.90;99.90;;;;;;5064468;28;19967;-70
2022/04/11 06:38:52;;;;;;;;;;;1.90;99.90;;;;;;5063803;28;20078;-70
2022/04/11 06:41:18;;;;;;;;;;;2.00;99.90;;;;;;5064231;28;20204;-74
2022/04/11 06:43:45;;;;;;;;;;;2.00;99.90;;;;;;5076772;28;20081;-70
2022/04/11 06:46:13;;;;;;;;;;;2.00;99.90;;;;;;5084766;28;19929;-69
2022/04/11 06:48:40;;;;;;;;;;;2.10;99.90;;;;;;5085526;28;19924;-70
2022/04/11 06:51:06;;;;;;;;;;;2.10;99.90;;;;;;5085570;28;19920;-70
2022/04/11 06:53:33;;;;;;;;;;;2.20;99.90;;;;;;5064523;28;20230;-69
2022/04/11 06:55:59;;;;;;;;;;;2.30;99.90;;;;;;5063296;28;19921;-69
2022/04/11 06:58:26;;;;;;;;;;;2.40;99.90;;;;;;5064489;28;19929;-69
2022/04/11 07:00:53;;;;;;;;;;;2.40;99.90;;;;;;5063928;28;19988;-70
2022/04/11 07:03:20;;;;;;;;;;;2.50;99.90;;;;;;5064133;28;19944;-70
2022/04/11 07:05:47;;;;;;;;;;;2.60;99.90;;;;;;5063739;28;19921;-70
2022/04/11 07:08:14;;;;;;;;;;;2.70;99.90;;;;;;5063992;28;19927;-69
2022/04/11 07:10:40;;;;;;;;;;;2.80;99.90;;;;;;5064250;28;20175;-69
2022/04/11 07:13:07;;;;;;;;;;;2.90;99.90;;;;;;5061290;28;19921;-70
2022/04/11 07:15:34;;;;;;;;;;;3.00;99.90;;;;;;5063242;28;19927;-70
2022/04/11 07:18:00;;;;;;;;;;;3.10;99.90;;;;;;5063960;28;19925;-70
2022/04/11 07:20:28;;;;;;;;;;;3.20;99.90;;;;;;5063706;28;19921;-70
2022/04/11 07:22:55;;;;;;;;;;;3.40;99.90;;;;;;5068648;28;19920;-70
2022/04/11 07:25:23;;;;;;;;;;;3.50;99.90;;;;;;5077743;28;19927;-71
2022/04/11 07:27:50;;;;;;;;;;;3.70;99.90;;;;;;5063845;28;19920;-69
2022/04/11 07:30:16;;;;;;;;;;;3.80;99.90;;;;;;5063813;28;19952;-69
2022/04/11 07:32:43;;;;;;;;;;;4.00;99.90;;;;;;5064094;28;19921;-70
2022/04/11 07:35:09;;;;;;;;;;;4.10;99.90;;;;;;5063960;28;19927;-70
2022/04/11 07:37:37;;;;;;;;;;;4.20;99.90;;;;;;5063739;28;19921;-69
2022/04/11 07:40:04;;;;;;;;;;;4.30;99.90;;;;;;5060398;28;19928;-70
2022/04/11 07:42:31;;;;;;;;;;;4.50;99.90;;;;;;5064356;28;19927;-70
2022/04/11 07:44:57;;;;;;;;;;;4.70;99.90;;;;;;5061854;28;19927;-69
2022/04/11 07:47:24;;;;;;;;;;;4.80;99.90;;;;;;5059704;28;19921;-69
2022/04/11 07:49:50;;;;;;;;;;;4.90;99.90;;;;;;5062592;28;19921;-70
2022/04/11 07:52:18;;;;;;;;;;;5.10;99.90;;;;;;5062713;28;19943;-70
2022/04/11 07:54:45;;;;;;;;;;;5.20;99.90;;;;;;5058210;28;20378;-70
2022/04/11 07:57:13;;;;;;;;;;;5.30;99.90;;;;;;5061684;28;20113;-70
2022/04/11 07:59:40;;;;;;;;;;;5.40;99.90;;;;;;5063078;28;19952;-70
2022/04/11 08:02:07;;;;;;;;;;;5.60;99.90;;;;;;5062376;28;19921;-69
2022/04/11 08:04:33;;;;;;;;;;;5.70;99.90;;;;;;5061628;28;19928;-70
2022/04/11 08:07:01;;;;;;;;;;;5.80;99.90;;;;;;5062050;28;19920;-70
2022/04/11 08:09:28;;;;;;;;;;;5.90;99.90;;;;;;5062787;28;19979;-70
2022/04/11 08:11:56;;;;;;;;;;;5.90;99.90;;;;;;5062232;28;19928;-70
2022/04/11 08:14:22;;;;;;;;;;;6.00;99.90;;;;;;5062683;28;20227;-69
2022/04/11 08:16:49;;;;;;;;;;;6.00;99.90;;;;;;5062717;28;20120;-70
2022/04/11 08:19:15;;;;;;;;;;;6.10;99.90;;;;;;5060419;28;19920;-70
2022/04/11 08:21:42;;;;;;;;;;;6.20;99.90;;;;;;5061816;28;19921;-70
2022/04/11 08:24:09;;;;;;;;;;;6.20;99.90;;;;;;5077889;28;19921;-70
2022/04/11 08:26:35;;;;;;;;;;;6.30;99.90;;;;;;5080205;28;19943;-71
2022/04/11 08:29:03;;;;;;;;;;;6.40;99.90;;;;;;5063294;28;19921;-70
2022/04/11 08:31:30;;;;;;;;;;;6.50;99.90;;;;;;5063085;28;19967;-69
2022/04/11 08:33:56;;;;;;;;;;;6.60;99.90;;;;;;5062186;28;20153;-69
2022/04/11 08:36:24;;;;;;;;;;;6.80;99.90;;;;;;5062565;28;20086;-70
2022/04/11 08:38:52;;;;;;;;;;;6.90;99.90;;;;;;5062578;28;20102;-69
2022/04/11 08:41:19;;;;;;;;;;;6.90;99.90;;;;;;5062527;28;19928;-70
2022/04/11 08:43:46;;;;;;;;;;;7.10;99.90;;;;;;5072602;28;19920;-70
2022/04/11 08:46:16;;;;;;;;;;;7.10;99.90;;;;;;5062194;28;19920;-70
2022/04/11 08:48:43;;;;;;;;;;;7.10;99.90;;;;;;5063002;28;19921;-69
2022/04/11 08:51:10;;;;;;;;;;;7.20;99.90;;;;;;5062627;28;19928;-69
2022/04/11 08:53:37;;;;;;;;;;;7.30;99.90;;;;;;5058133;28;19925;-70
2022/04/11 08:56:04;;;;;;;;;;;7.40;99.90;;;;;;5060305;28;19920;-69
2022/04/11 08:58:30;;;;;;;;;;;7.50;99.90;;;;;;5061339;28;20204;-70
2022/04/11 09:00:57;;;;;;;;;;;7.70;99.90;;;;;;5061827;28;19927;-70
2022/04/11 09:03:25;;;;;;;;;;;7.80;99.90;;;;;;5064953;28;19928;-70
2022/04/11 09:06:04;;;;;;;;;;;7.80;99.90;;;;;;5065150;28;19920;-70
2022/04/11 09:08:38;;;;;;;;;;;7.90;99.90;;;;;;5057420;28;19943;-70
2022/04/11 09:14:08;;;;;;;;;;;8.00;99.90;;;;;;5053959;28;20052;-70
2022/04/11 09:16:43;;;;;;;;;;;8.00;99.90;;;;;;5065790;28;19959;-70
2022/04/11 09:19:18;;;;;;;;;;;8.00;99.90;;;;;;5065333;28;19940;-70
2022/04/11 09:21:45;;;;;;;;;;;8.00;99.90;;;;;;5065984;28;19927;-71
2022/04/11 09:24:15;;;;;;;;;;;8.10;99.90;;;;;;5074702;28;19921;-70
2022/04/11 09:26:42;;;;;;;;;;;8.20;99.90;;;;;;5065266;28;19921;-70
2022/04/11 09:29:08;;;;;;;;;;;8.20;99.90;;;;;;5065819;28;19928;-70
2022/04/11 09:31:35;;;;;;;;;;;8.20;99.90;;;;;;5065753;28;20204;-71
2022/04/11 09:34:13;;;;;;;;;;;8.30;99.90;;;;;;5065587;28;20116;-70
2022/04/11 09:36:45;;;;;;;;;;;8.40;99.90;;;;;;5064870;28;19920;-70
2022/04/11 09:39:11;;;;;;;;;;;8.50;99.90;;;;;;5053937;28;19920;-70
2022/04/11 09:41:42;;;;;;;;;;;8.60;99.90;;;;;;5059667;28;19943;-69
2022/04/11 09:44:19;;;;;;;;;;;8.60;99.90;;;;;;5070188;28;19921;-69
2022/04/11 09:46:46;;;;;;;;;;;8.70;99.90;;;;;;5056247;28;19927;-72
2022/04/11 09:49:13;;;;;;;;;;;8.80;99.90;;;;;;5064337;28;19956;-72
2022/04/11 09:51:58;;;;;;;;;;;8.90;99.90;;;;;;5065246;28;19921;-67
2022/04/11 09:54:29;;;;;;;;;;;8.90;99.90;;;;;;5060805;28;19925;-67
2022/04/11 09:56:58;;;;;;;;;;;9.00;99.90;;;;;;5045148;28;19921;-68
2022/04/11 09:59:26;;;;;;;;;;;9.10;99.90;;;;;;5045625;28;20152;-67
2022/04/11 10:01:56;;;;;;;;;;;9.30;99.90;;;;;;5044962;28;19924;-68
2022/04/11 10:04:23;;;;;;;;;;;9.30;99.90;;;;;;5051909;28;20020;-68
2022/04/11 10:06:49;;;;;;;;;;;9.50;99.90;;;;;;5064745;28;19924;-68
2022/04/11 10:09:19;;;;;;;;;;;9.60;99.90;;;;;;5064786;28;19988;-69
2022/04/11 10:11:47;;;;;;;;;;;9.80;99.90;;;;;;5057655;28;19927;-68
2022/04/11 10:14:15;;;;;;;;;;;9.90;99.90;;;;;;5060278;28;19920;-68
2022/04/11 10:16:43;;;;;;;;;;;10.10;99.90;;;;;;5064251;28;19984;-67
2022/04/11 10:19:10;;;;;;;;;;;10.20;99.90;;;;;;5064771;28;19943;-68
2022/04/11 10:21:37;;;;;;;;;;;10.40;99.90;;;;;;5064673;28;19933;-68
2022/04/11 10:24:06;;;;;;;;;;;10.50;99.90;;;;;;5078709;28;19987;-67
2022/04/11 10:26:43;;;;;;;;;;;10.60;99.90;;;;;;5046582;28;19967;-68
2022/04/11 10:29:25;;;;;;;;;;;10.70;99.90;;;;;;5064280;28;19921;-67
2022/04/11 10:32:04;;;;;;;;;;;10.80;99.90;;;;;;5064254;28;19924;-68
2022/04/11 10:34:44;;;;;;;;;;;11.00;99.90;;;;;;5064434;28;19927;-69
2022/04/11 10:37:10;;;;;;;;;;;11.10;99.90;;;;;;5064360;28;19927;-68
2022/04/11 10:39:39;;;;;;;;;;;11.10;99.90;;;;;;5056754;28;19921;-68
2022/04/11 10:42:10;;;;;;;;;;;11.20;99.90;;;;;;5064544;28;19920;-68
2022/04/11 10:44:37;;;;;;;;;;;11.30;99.90;;;;;;5083193;28;19920;-68
2022/04/11 10:47:29;;;;;;;;;;;11.50;99.90;;;;;;5066332;28;19921;-68
2022/04/11 10:50:14;;;;;;;;;;;11.50;99.90;;;;;;5063861;28;19920;-68
2022/04/11 10:52:41;;;;;;;;;;;11.70;99.90;;;;;;5064859;28;19921;-67
2022/04/11 10:55:09;;;;;;;;;;;12.00;99.90;;;;;;5064027;28;19928;-68
2022/04/11 10:57:36;;;;;;;;;;;12.00;99.90;;;;;;5063557;28;19924;-67
2022/04/11 11:00:06;;;;;;;;;;;12.00;99.90;;;;;;5063719;28;19920;-68
2022/04/11 11:02:52;;;;;;;;;;;12.10;99.90;;;;;;5063744;28;19935;-68
2022/04/11 11:05:24;;;;;;;;;;;12.30;99.90;;;;;;5063637;28;20208;-68
2022/04/11 11:08:13;;;;;;;;;;;12.40;99.90;;;;;;5063919;28;20277;-67
2022/04/11 11:10:42;;;;;;;;;;;12.50;99.90;;;;;;5063680;28;19927;-69
2022/04/11 11:13:31;;;;;;;;;;;12.60;99.90;;;;;;5063263;28;20194;-67
2022/04/11 11:15:58;;;;;;;;;;;12.80;99.90;;;;;;5063523;28;19959;-67
2022/04/11 11:18:25;;;;;;;;;;;12.80;99.90;;;;;;5063827;28;19982;-68
2022/04/11 11:20:53;;;;;;;;;;;12.90;99.90;;;;;;5063979;28;19929;-67
2022/04/11 11:23:31;;;;;;;;;;;13.10;99.90;;;;;;5070508;28;19921;-67
2022/04/11 11:26:08;;;;;;;;;;;13.30;99.90;;;;;;5062898;28;20307;-66
2022/04/11 11:28:35;;;;;;;;;;;13.40;99.90;;;;;;5062970;28;20124;-67
2022/04/11 11:31:02;;;;;;;;;;;13.60;99.90;;;;;;5063362;28;19944;-66
2022/04/11 11:33:28;;;;;;;;;;;13.60;99.90;;;;;;5062630;28;19927;-67
2022/04/11 11:35:56;;;;;;;;;;;13.30;99.90;;;;;;5063057;28;19928;-67
2022/04/11 11:38:24;;;;;;;;;;;13.10;99.90;;;;;;5062463;28;20255;-67
2022/04/11 11:40:55;;;;;;;;;;;13.20;99.90;;;;;;5063020;28;20333;-67
2022/04/11 11:43:23;;;;;;;;;;;13.10;99.90;;;;;;5062063;28;19920;-67
2022/04/11 11:45:50;;;;;;;;;;;13.50;99.90;;;;;;5062653;28;19927;-67
2022/04/11 11:48:22;;;;;;;;;;;13.80;99.90;;;;;;5062225;28;20212;-68
2022/04/11 11:50:51;;;;;;;;;;;13.90;99.90;;;;;;5061652;28;19956;-66
2022/04/11 11:53:18;;;;;;;;;;;14.10;99.90;;;;;;5063461;28;19927;-67
2022/04/11 11:55:51;;;;;;;;;;;14.30;99.90;;;;;;5063118;28;19927;-66
2022/04/11 11:58:18;;;;;;;;;;;14.40;99.90;;;;;;5063349;28;19921;-67
2022/04/11 12:00:47;;;;;;;;;;;14.20;99.90;;;;;;5062876;28;19925;-66
2022/04/11 12:05:59;;;;;;;;;;;14.50;99.90;;;;;;5062822;28;19962;-66
2022/04/11 12:08:30;;;;;;;;;;;14.90;99.90;;;;;;5063353;28;19927;-66
2022/04/11 12:10:58;;;;;;;;;;;14.80;99.90;;;;;;5042440;28;19939;-66
2022/04/11 12:13:26;;;;;;;;;;;14.90;99.90;;;;;;5043039;28;19921;-65
2022/04/11 12:15:54;;;;;;;;;;;15.10;99.90;;;;;;5042766;28;19921;-67
2022/04/11 12:18:21;;;;;;;;;;;15.10;99.90;;;;;;5054030;28;19956;-70
2022/04/11 12:20:48;;;;;;;;;;;15.10;99.90;;;;;;5062528;28;19921;-68
2022/04/11 12:23:15;;;;;;;;;;;15.20;99.90;;;;;;5059866;28;19952;-68
2022/04/11 12:25:44;;;;;;;;;;;15.40;99.90;;;;;;5061792;28;19983;-69
2022/04/11 12:28:14;;;;;;;;;;;15.60;99.90;;;;;;5043028;28;19967;-68
2022/04/11 12:30:44;;;;;;;;;;;15.90;99.80;;;;;;5049528;28;19943;-68
2022/04/11 12:33:13;;;;;;;;;;;16.00;99.30;;;;;;5062324;28;19920;-68
2022/04/11 12:35:40;;;;;;;;;;;16.00;99.10;;;;;;5059014;28;20256;-67
2022/04/11 12:38:10;;;;;;;;;;;15.60;97.30;;;;;;5065721;28;19963;-68
2022/04/11 12:40:43;;;;;;;;;;;15.40;99.50;;;;;;5066681;28;19962;-71
2022/04/11 12:43:09;;;;;;;;;;;15.30;97.70;;;;;;5066692;28;20223;-68
2022/04/11 12:45:36;;;;;;;;;;;15.30;99.40;;;;;;5066660;28;19921;-68
2022/04/11 12:48:03;;;;;;;;;;;15.40;97.80;;;;;;5065791;28;19920;-68
2022/04/11 12:50:32;;;;;;;;;;;15.50;98.70;;;;;;5065400;28;19979;-68
2022/04/11 12:52:59;;;;;;;;;;;15.80;99.30;;;;;;5066225;28;19925;-68
2022/04/11 12:55:26;;;;;;;;;;;16.00;96.40;;;;;;5066434;28;19921;-69
2022/04/11 12:57:59;;;;;;;;;;;16.00;96.40;;;;;;5066310;28;20439;-68
2022/04/11 13:00:26;;;;;;;;;;;16.00;97.30;;;;;;5066502;28;19925;-68
2022/04/11 13:02:54;;;;;;;;;;;15.90;98.00;;;;;;5066349;28;19921;-68
2022/04/11 13:05:21;;;;;;;;;;;16.00;98.10;;;;;;5065468;28;19921;-68
2022/04/11 13:10:52;;;;;;;;;;;16.50;96.10;;;;;;5065746;28;19916;-67
2022/04/11 13:13:19;;;;;;;;;;;16.50;94.40;;;;;;5065870;28;19921;-67
2022/04/11 13:18:26;;;;;;;;;;;16.50;94.40;;;;;;5064898;28;19938;-67
2022/04/11 13:20:53;;;;;;;;;;;16.70;95.70;;;;;;5065505;28;19999;-67
2022/04/11 13:23:20;;;;;;;;;;;16.90;93.40;;;;;;5062290;28;19927;-67
2022/04/11 13:25:46;;;;;;;;;;;16.70;92.70;;;;;;5047514;28;19921;-66
2022/04/11 13:28:14;;;;;;;;;;;16.10;93.20;;;;;;5060546;28;19928;-66
2022/04/11 13:30:41;;;;;;;;;;;16.20;95.10;;;;;;5064708;28;19928;-67
2022/04/11 13:33:08;;;;;;;;;;;16.50;95.60;;;;;;5065392;28;19928;-67
2022/04/11 13:35:34;;;;;;;;;;;16.80;95.40;;;;;;5065587;28;19921;-68
2022/04/11 13:38:01;;;;;;;;;;;17.10;93.50;;;;;;5065982;28;19921;-67
2022/04/11 13:40:27;;;;;;;;;;;17.40;94.50;;;;;;5067081;28;19921;-67
2022/04/11 13:42:59;;;;;;;;;;;17.60;91.90;;;;;;5064804;28;19921;-67
2022/04/11 13:45:27;;;;;;;;;;;17.70;92.90;;;;;;5099251;22;19931;-91
2022/04/11 13:47:55;;;;;;;;;;;17.80;93.50;;;;;;5070758;28;19940;-90
2022/04/11 13:50:23;;;;;;;;;;;17.70;93.70;;;;;;5083217;28;19919;-89
2022/04/11 13:52:50;;;;;;;;;;;17.70;93.90;;;;;;5081020;28;19909;-90
2022/04/11 13:55:17;;;;;;;;;;;17.80;92.50;;;;;;5079483;28;19913;-90
2022/04/11 13:57:43;;;;;;;;;;;17.60;90.90;;;;;;5079257;28;19981;-92
2022/04/11 14:00:11;;;;;;;;;;;16.80;91.50;;;;;;5073072;28;19973;-90
2022/04/11 14:02:39;;;;;;;;;;;16.90;93.40;;;;;;5077551;28;19932;-90
2022/04/11 14:05:06;;;;;;;;;;;17.10;92.70;;;;;;5079855;28;19923;-89
2022/04/11 14:07:34;;;;;;;;;;;17.30;93.10;;;;;;5079262;28;19913;-91
2022/04/11 14:10:04;;;;;;;;;;;17.50;92.40;;;;;;5078669;28;19913;-91
2022/04/11 14:12:36;;;;;;;;;;;17.60;91.90;;;;;;5074393;28;19920;-89
2022/04/11 14:15:09;;;;;;;;;;;17.20;93.30;;;;;;5070286;28;19928;-89
2022/04/11 14:17:41;;;;;;;;;;;17.20;92.60;;;;;;5078065;28;19944;-91
2022/04/11 14:20:31;;;;;;;;;;;17.10;92.80;;;;;;5058957;28;19920;-91
2022/04/11 14:23:01;;;;;;;;;;;17.30;93.20;;;;;;5075837;28;19912;-90
2022/04/11 14:25:28;;;;;;;;;;;17.50;92.20;;;;;;5071762;28;19927;-90
2022/04/11 14:27:55;;;;;;;;;;;17.70;92.40;;;;;;5073688;28;19909;-91
2022/04/11 14:30:29;;;;;;;;;;;17.80;92.10;;;;;;5076910;28;19921;-90
2022/04/11 14:32:56;;;;;;;;;;;17.90;92.10;;;;;;5067777;28;19913;-90
2022/04/11 14:35:24;;;;;;;;;;;18.10;92.60;;;;;;5063435;28;19941;-90
2022/04/11 14:37:52;;;;;;;;;;;18.00;91.30;;;;;;5072738;28;19947;-91
2022/04/11 14:40:19;;;;;;;;;;;17.80;90.90;;;;;;5073099;28;19920;-91
2022/04/11 14:42:45;;;;;;;;;;;17.50;91.20;;;;;;5079484;28;19977;-92